createdAt,value
2018-03-26T00:00:17.195Z,-1.52
2018-03-26T00:01:16.233Z,-1.77
2018-03-26T00:02:16.500Z,-1.89
2018-03-26T00:03:16.765Z,-1.89
2018-03-26T00:04:17.027Z,-1.89
2018-03-26T00:05:16.286Z,-1.95
2018-03-26T00:06:16.544Z,-1.95
2018-03-26T00:07:16.815Z,-1.95
2018-03-26T00:08:17.085Z,-2.02
2018-03-26T00:09:16.348Z,-1.95
2018-03-26T00:10:16.625Z,-1.83
2018-03-26T00:11:16.664Z,-1.70
2018-03-26T00:12:16.931Z,-1.58
2018-03-26T00:13:17.191Z,-1.52
2018-03-26T00:14:16.450Z,-1.52
2018-03-26T00:15:16.718Z,-1.45
2018-03-26T00:16:16.990Z,-1.45
2018-03-26T00:17:16.249Z,-1.45
2018-03-26T00:18:16.516Z,-1.45
2018-03-26T00:19:16.773Z,-1.45
2018-03-26T00:20:17.037Z,-1.52
2018-03-26T00:21:17.079Z,-1.58
2018-03-26T00:22:16.344Z,-1.58
2018-03-26T00:23:16.607Z,-1.58
2018-03-26T00:24:16.874Z,-1.58
2018-03-26T00:25:17.152Z,-1.58
2018-03-26T00:26:16.418Z,-1.58
2018-03-26T00:27:16.718Z,-1.45
2018-03-26T00:28:17.106Z,-1.39
2018-03-26T00:29:16.370Z,-1.33
2018-03-26T00:30:16.643Z,-1.27
2018-03-26T00:31:16.681Z,-1.27
2018-03-26T00:32:16.952Z,-1.20
2018-03-26T00:33:16.214Z,-1.20
2018-03-26T00:34:16.476Z,-1.20
2018-03-26T00:35:16.747Z,-1.20
2018-03-26T00:36:17.004Z,-1.27
2018-03-26T00:37:16.256Z,-1.27
2018-03-26T00:38:16.529Z,-1.27
2018-03-26T00:39:16.786Z,-1.33
2018-03-26T00:40:17.050Z,-1.33
2018-03-26T00:41:16.279Z,-1.39
2018-03-26T00:42:16.546Z,-1.39
2018-03-26T00:43:16.794Z,-1.39
2018-03-26T00:44:17.046Z,-1.39
2018-03-26T00:45:16.316Z,-1.39
2018-03-26T00:46:16.579Z,-1.39
2018-03-26T00:47:16.841Z,-1.39
2018-03-26T00:48:17.114Z,-1.39
2018-03-26T00:49:16.364Z,-1.45
2018-03-26T00:50:16.643Z,-1.45
2018-03-26T00:51:16.681Z,-1.45
2018-03-26T00:52:16.960Z,-1.39
2018-03-26T00:53:16.224Z,-1.33
2018-03-26T00:54:16.488Z,-1.33
2018-03-26T00:55:16.747Z,-1.27
2018-03-26T00:56:17.017Z,-1.33
2018-03-26T00:57:16.280Z,-1.39
2018-03-26T00:58:16.540Z,-1.45
2018-03-26T00:59:16.799Z,-1.45
2018-03-26T01:00:17.066Z,-1.52
2018-03-26T01:01:17.110Z,-1.52
2018-03-26T01:02:16.386Z,-1.52
2018-03-26T01:03:16.644Z,-1.45
2018-03-26T01:04:16.910Z,-1.52
2018-03-26T01:05:17.169Z,-1.52
2018-03-26T01:06:16.429Z,-1.52
2018-03-26T01:07:16.703Z,-1.52
2018-03-26T01:08:16.975Z,-1.58
2018-03-26T01:09:16.234Z,-1.58
2018-03-26T01:10:16.500Z,-1.58
2018-03-26T01:11:16.543Z,-1.58
2018-03-26T01:12:16.818Z,-1.64
2018-03-26T01:13:17.084Z,-1.64
2018-03-26T01:14:16.344Z,-1.64
2018-03-26T01:15:16.608Z,-1.64
2018-03-26T01:16:16.872Z,-1.58
2018-03-26T01:17:17.151Z,-1.52
2018-03-26T01:18:16.406Z,-1.52
2018-03-26T01:19:16.664Z,-1.52
2018-03-26T01:20:16.931Z,-1.52
2018-03-26T01:21:16.983Z,-1.58
2018-03-26T01:22:16.243Z,-1.52
2018-03-26T01:23:16.514Z,-1.52
2018-03-26T01:24:16.782Z,-1.45
2018-03-26T01:25:17.039Z,-1.45
2018-03-26T01:26:16.295Z,-1.45
2018-03-26T01:27:16.557Z,-1.45
2018-03-26T01:28:16.822Z,-1.45
2018-03-26T01:29:17.080Z,-1.52
2018-03-26T01:30:16.352Z,-1.58
2018-03-26T01:31:16.402Z,-1.64
2018-03-26T01:32:16.663Z,-1.52
2018-03-26T01:33:16.936Z,-1.52
2018-03-26T01:34:17.207Z,-1.58
2018-03-26T01:35:16.478Z,-1.58
2018-03-26T01:36:16.740Z,-1.45
2018-03-26T01:37:17.000Z,-1.52
2018-03-26T01:38:16.261Z,-1.58
2018-03-26T01:39:16.515Z,-1.58
2018-03-26T01:40:16.790Z,-1.64
2018-03-26T01:41:16.824Z,-1.64
2018-03-26T01:42:17.091Z,-1.70
2018-03-26T01:43:16.359Z,-1.64
2018-03-26T01:44:16.622Z,-1.58
2018-03-26T01:45:16.890Z,-1.58
2018-03-26T01:46:17.144Z,-1.52
2018-03-26T01:47:16.410Z,-1.52
2018-03-26T01:48:16.664Z,-1.52
2018-03-26T01:49:16.939Z,-1.52
2018-03-26T01:50:16.199Z,-1.52
2018-03-26T01:51:16.246Z,-1.45
2018-03-26T01:52:16.587Z,-1.45
2018-03-26T01:53:16.849Z,-1.45
2018-03-26T01:54:17.114Z,-1.45
2018-03-26T01:55:16.388Z,-1.45
2018-03-26T01:56:16.654Z,-1.33
2018-03-26T01:57:16.920Z,-1.33
2018-03-26T01:58:17.192Z,-1.27
2018-03-26T01:59:16.453Z,-1.27
2018-03-26T02:00:16.716Z,-1.27
2018-03-26T02:01:16.759Z,-1.27
2018-03-26T02:02:17.024Z,-1.20
2018-03-26T02:03:16.291Z,-1.14
2018-03-26T02:04:16.561Z,-1.14
2018-03-26T02:05:16.822Z,-1.14
2018-03-26T02:06:17.086Z,-1.14
2018-03-26T02:07:16.354Z,-1.14
2018-03-26T02:08:16.611Z,-1.08
2018-03-26T02:09:16.865Z,-1.08
2018-03-26T02:10:17.133Z,-1.08
2018-03-26T02:11:17.180Z,-1.02
2018-03-26T02:12:16.433Z,-1.02
2018-03-26T02:13:16.698Z,-1.02
2018-03-26T02:14:16.956Z,-0.89
2018-03-26T02:15:16.222Z,-0.77
2018-03-26T02:16:16.483Z,-0.70
2018-03-26T02:17:16.745Z,-0.70
2018-03-26T02:18:17.005Z,-0.64
2018-03-26T02:19:16.280Z,-0.70
2018-03-26T02:20:16.538Z,-0.70
2018-03-26T02:21:16.595Z,-0.70
2018-03-26T02:22:16.852Z,-0.70
2018-03-26T02:23:17.131Z,-0.70
2018-03-26T02:24:16.394Z,-0.64
2018-03-26T02:25:16.658Z,-0.58
2018-03-26T02:26:16.915Z,-0.58
2018-03-26T02:27:16.231Z,-0.58
2018-03-26T02:28:16.490Z,-0.52
2018-03-26T02:29:16.791Z,-0.52
2018-03-26T02:30:17.062Z,-0.52
2018-03-26T02:31:17.114Z,-0.52
2018-03-26T02:32:16.382Z,-0.64
2018-03-26T02:33:16.642Z,-0.70
2018-03-26T02:34:16.910Z,-0.77
2018-03-26T02:35:17.179Z,-0.70
2018-03-26T02:36:16.453Z,-0.70
2018-03-26T02:37:16.726Z,-0.64
2018-03-26T02:38:17.038Z,-0.64
2018-03-26T02:39:16.313Z,-0.70
2018-03-26T02:40:16.572Z,-0.77
2018-03-26T02:41:16.720Z,-0.83
2018-03-26T02:42:16.994Z,-0.77
2018-03-26T02:43:16.263Z,-0.77
2018-03-26T02:44:16.536Z,-0.70
2018-03-26T02:45:16.803Z,-0.64
2018-03-26T02:46:17.072Z,-0.64
2018-03-26T02:47:16.334Z,-0.64
2018-03-26T02:48:16.592Z,-0.70
2018-03-26T02:49:16.859Z,-0.70
2018-03-26T02:50:17.135Z,-0.70
2018-03-26T02:51:17.192Z,-0.70
2018-03-26T02:52:16.454Z,-0.64
2018-03-26T02:53:16.734Z,-0.64
2018-03-26T02:54:16.995Z,-0.58
2018-03-26T02:55:16.263Z,-0.45
2018-03-26T02:56:16.532Z,-0.39
2018-03-26T02:57:16.811Z,-0.39
2018-03-26T02:58:17.099Z,-0.45
2018-03-26T02:59:16.369Z,-0.45
2018-03-26T03:00:16.647Z,-0.45
2018-03-26T03:01:16.680Z,-0.52
2018-03-26T03:02:17.014Z,-0.58
2018-03-26T03:03:16.287Z,-0.58
2018-03-26T03:04:16.548Z,-0.58
2018-03-26T03:05:16.811Z,-0.58
2018-03-26T03:06:17.097Z,-0.64
2018-03-26T03:07:16.358Z,-0.64
2018-03-26T03:08:16.627Z,-0.64
2018-03-26T03:09:16.891Z,-0.64
2018-03-26T03:10:17.161Z,-0.58
2018-03-26T03:11:17.187Z,-0.58
2018-03-26T03:12:16.450Z,-0.58
2018-03-26T03:13:16.708Z,-0.58
2018-03-26T03:14:16.973Z,-0.58
2018-03-26T03:15:16.476Z,-0.58
2018-03-26T03:16:16.743Z,-0.58
2018-03-26T03:17:17.004Z,-0.52
2018-03-26T03:18:16.270Z,-0.58
2018-03-26T03:19:16.526Z,-0.58
2018-03-26T03:20:16.810Z,-0.52
2018-03-26T03:21:16.830Z,-0.52
2018-03-26T03:22:17.090Z,-0.52
2018-03-26T03:23:16.353Z,-0.52
2018-03-26T03:24:16.615Z,-0.52
2018-03-26T03:25:16.895Z,-0.52
2018-03-26T03:26:17.153Z,-0.45
2018-03-26T03:27:16.415Z,-0.45
2018-03-26T03:28:16.686Z,-0.39
2018-03-26T03:29:16.956Z,-0.33
2018-03-26T03:30:16.231Z,-0.33
2018-03-26T03:31:16.269Z,-0.33
2018-03-26T03:32:16.532Z,-0.27
2018-03-26T03:33:16.785Z,-0.27
2018-03-26T03:34:17.061Z,-0.27
2018-03-26T03:35:16.323Z,-0.27
2018-03-26T03:36:16.587Z,-0.33
2018-03-26T03:37:16.857Z,-0.27
2018-03-26T03:38:17.111Z,-0.27
2018-03-26T03:39:16.369Z,-0.27
2018-03-26T03:40:16.636Z,-0.20
2018-03-26T03:41:16.677Z,-0.27
2018-03-26T03:42:16.933Z,-0.20
2018-03-26T03:43:16.201Z,-0.20
2018-03-26T03:44:16.463Z,-0.20
2018-03-26T03:45:16.734Z,-0.20
2018-03-26T03:46:16.991Z,-0.14
2018-03-26T03:47:16.250Z,-0.14
2018-03-26T03:48:16.526Z,-0.20
2018-03-26T03:49:16.790Z,-0.20
2018-03-26T03:50:17.364Z,-0.14
2018-03-26T03:51:17.112Z,-0.14
2018-03-26T03:52:16.368Z,-0.14
2018-03-26T03:53:16.630Z,-0.14
2018-03-26T03:54:16.899Z,-0.14
2018-03-26T03:55:17.158Z,-0.14
2018-03-26T03:56:16.444Z,-0.08
2018-03-26T03:57:16.718Z,-0.14
2018-03-26T03:58:16.976Z,-0.08
2018-03-26T03:59:16.237Z,-0.08
2018-03-26T04:00:16.503Z,-0.08
2018-03-26T04:01:16.570Z,-0.02
2018-03-26T04:02:16.833Z,-0.02
2018-03-26T04:03:17.087Z,-0.02
2018-03-26T04:04:16.353Z,-0.02
2018-03-26T04:05:16.620Z,-0.02
2018-03-26T04:06:16.901Z,-0.02
2018-03-26T04:07:17.173Z,-0.02
2018-03-26T04:08:16.449Z,0.05
2018-03-26T04:09:16.722Z,0.05
2018-03-26T04:10:16.988Z,0.05
2018-03-26T04:11:17.038Z,0.05
2018-03-26T04:12:16.306Z,0.05
2018-03-26T04:13:16.564Z,0.11
2018-03-26T04:14:16.840Z,0.11
2018-03-26T04:15:17.116Z,0.17
2018-03-26T04:16:16.387Z,0.17
2018-03-26T04:17:16.645Z,0.17
2018-03-26T04:18:16.912Z,0.17
2018-03-26T04:19:17.178Z,0.17
2018-03-26T04:20:16.446Z,0.17
2018-03-26T04:21:16.489Z,0.17
2018-03-26T04:22:16.752Z,0.23
2018-03-26T04:23:17.016Z,0.23
2018-03-26T04:24:16.272Z,0.23
2018-03-26T04:25:16.554Z,0.23
2018-03-26T04:26:16.833Z,0.23
2018-03-26T04:27:17.097Z,0.30
2018-03-26T04:28:16.361Z,0.36
2018-03-26T04:29:16.624Z,0.42
2018-03-26T04:30:16.885Z,0.36
2018-03-26T04:31:16.940Z,0.42
2018-03-26T04:32:16.206Z,0.36
2018-03-26T04:33:16.472Z,0.36
2018-03-26T04:34:16.737Z,0.48
2018-03-26T04:35:17.010Z,0.55
2018-03-26T04:36:16.500Z,0.55
2018-03-26T04:37:16.765Z,0.55
2018-03-26T04:38:17.026Z,0.55
2018-03-26T04:39:16.295Z,0.55
2018-03-26T04:40:16.565Z,0.55
2018-03-26T04:41:16.618Z,0.55
2018-03-26T04:42:16.883Z,0.55
2018-03-26T04:43:17.143Z,0.48
2018-03-26T04:44:16.410Z,0.48
2018-03-26T04:45:16.685Z,0.48
2018-03-26T04:46:16.947Z,0.48
2018-03-26T04:47:16.224Z,0.48
2018-03-26T04:48:16.486Z,0.48
2018-03-26T04:49:16.748Z,0.48
2018-03-26T04:50:17.013Z,0.48
2018-03-26T04:51:17.046Z,0.48
2018-03-26T04:52:16.308Z,0.55
2018-03-26T04:53:16.562Z,0.61
2018-03-26T04:54:16.824Z,0.61
2018-03-26T04:55:17.166Z,0.61
2018-03-26T04:56:16.437Z,0.61
2018-03-26T04:57:16.702Z,0.67
2018-03-26T04:58:16.959Z,0.67
2018-03-26T04:59:16.231Z,0.67
2018-03-26T05:00:16.497Z,0.67
2018-03-26T05:01:16.560Z,0.73
2018-03-26T05:02:16.842Z,0.73
2018-03-26T05:03:16.205Z,0.67
2018-03-26T05:04:16.478Z,0.61
2018-03-26T05:05:16.745Z,0.61
2018-03-26T05:06:17.015Z,0.61
2018-03-26T05:07:16.286Z,0.61
2018-03-26T05:08:16.556Z,0.61
2018-03-26T05:09:16.823Z,0.61
2018-03-26T05:10:17.100Z,0.61
2018-03-26T05:11:17.146Z,0.61
2018-03-26T05:12:16.417Z,0.61
2018-03-26T05:13:16.685Z,0.67
2018-03-26T05:14:16.946Z,0.67
2018-03-26T05:15:16.209Z,0.61
2018-03-26T05:16:16.472Z,0.67
2018-03-26T05:17:16.741Z,0.67
2018-03-26T05:18:17.004Z,0.67
2018-03-26T05:19:16.281Z,0.73
2018-03-26T05:20:16.557Z,0.73
2018-03-26T05:21:16.606Z,0.67
2018-03-26T05:22:16.915Z,0.73
2018-03-26T05:23:17.173Z,0.73
2018-03-26T05:24:16.430Z,0.80
2018-03-26T05:25:16.688Z,0.80
2018-03-26T05:26:16.949Z,0.86
2018-03-26T05:27:16.214Z,0.86
2018-03-26T05:28:16.483Z,0.92
2018-03-26T05:29:16.753Z,0.92
2018-03-26T05:30:17.025Z,0.98
2018-03-26T05:31:17.071Z,0.98
2018-03-26T05:32:16.333Z,0.98
2018-03-26T05:33:16.595Z,0.98
2018-03-26T05:34:16.856Z,0.98
2018-03-26T05:35:17.124Z,0.98
2018-03-26T05:36:16.414Z,0.98
2018-03-26T05:37:16.680Z,0.98
2018-03-26T05:38:16.953Z,1.05
2018-03-26T05:39:16.263Z,1.05
2018-03-26T05:40:16.533Z,1.05
2018-03-26T05:41:16.576Z,1.05
2018-03-26T05:42:16.838Z,1.05
2018-03-26T05:43:17.096Z,1.05
2018-03-26T05:44:16.357Z,1.11
2018-03-26T05:45:16.619Z,1.11
2018-03-26T05:46:16.883Z,1.11
2018-03-26T05:47:17.133Z,1.11
2018-03-26T05:48:16.400Z,1.11
2018-03-26T05:49:16.660Z,1.11
2018-03-26T05:50:16.923Z,1.17
2018-03-26T05:51:16.980Z,1.17
2018-03-26T05:52:16.263Z,1.17
2018-03-26T05:53:16.614Z,1.23
2018-03-26T05:54:16.891Z,1.17
2018-03-26T05:55:17.159Z,1.11
2018-03-26T05:56:16.417Z,1.11
2018-03-26T05:57:16.739Z,1.11
2018-03-26T05:58:17.006Z,1.11
2018-03-26T05:59:16.278Z,1.11
2018-03-26T06:00:16.558Z,1.17
2018-03-26T06:01:16.605Z,1.17
2018-03-26T06:02:16.859Z,1.17
2018-03-26T06:03:17.123Z,1.17
2018-03-26T06:04:16.378Z,1.23
2018-03-26T06:05:16.644Z,1.17
2018-03-26T06:06:16.913Z,1.23
2018-03-26T06:07:17.173Z,1.23
2018-03-26T06:08:16.437Z,1.30
2018-03-26T06:09:16.704Z,1.30
2018-03-26T06:10:16.986Z,1.30
2018-03-26T06:11:17.017Z,1.30
2018-03-26T06:12:16.285Z,1.30
2018-03-26T06:13:16.547Z,1.36
2018-03-26T06:14:16.813Z,1.42
2018-03-26T06:15:17.080Z,1.55
2018-03-26T06:16:16.341Z,1.61
2018-03-26T06:17:16.607Z,1.61
2018-03-26T06:18:16.870Z,1.67
2018-03-26T06:19:17.134Z,1.67
2018-03-26T06:20:16.411Z,1.67
2018-03-26T06:21:16.462Z,1.61
2018-03-26T06:22:16.730Z,1.61
2018-03-26T06:23:16.988Z,1.61
2018-03-26T06:24:16.254Z,1.61
2018-03-26T06:25:16.517Z,1.61
2018-03-26T06:26:16.783Z,1.61
2018-03-26T06:27:17.051Z,1.61
2018-03-26T06:28:16.311Z,1.61
2018-03-26T06:29:16.572Z,1.61
2018-03-26T06:30:16.851Z,1.61
2018-03-26T06:31:16.879Z,1.48
2018-03-26T06:32:17.139Z,1.42
2018-03-26T06:33:16.404Z,1.42
2018-03-26T06:34:16.670Z,1.42
2018-03-26T06:35:16.930Z,1.48
2018-03-26T06:36:17.198Z,1.48
2018-03-26T06:37:16.437Z,1.48
2018-03-26T06:38:16.701Z,1.55
2018-03-26T06:39:16.978Z,1.55
2018-03-26T06:40:16.236Z,1.61
2018-03-26T06:41:16.296Z,1.55
2018-03-26T06:42:16.562Z,1.55
2018-03-26T06:43:16.824Z,1.55
2018-03-26T06:44:17.093Z,1.55
2018-03-26T06:45:16.449Z,1.55
2018-03-26T06:46:16.706Z,1.55
2018-03-26T06:47:17.030Z,1.55
2018-03-26T06:48:16.293Z,1.61
2018-03-26T06:49:16.558Z,1.61
2018-03-26T06:50:16.837Z,1.61
2018-03-26T06:51:16.861Z,1.67
2018-03-26T06:52:17.141Z,1.67
2018-03-26T06:53:16.448Z,1.73
2018-03-26T06:54:16.710Z,1.73
2018-03-26T06:55:16.971Z,1.80
2018-03-26T06:56:16.224Z,1.80
2018-03-26T06:57:16.484Z,1.80
2018-03-26T06:58:16.754Z,1.86
2018-03-26T06:59:17.013Z,1.80
2018-03-26T07:00:16.289Z,1.86
2018-03-26T07:01:16.331Z,1.98
2018-03-26T07:02:16.589Z,2.05
2018-03-26T07:03:16.860Z,2.17
2018-03-26T07:04:17.117Z,2.23
2018-03-26T07:05:16.372Z,2.23
2018-03-26T07:06:16.625Z,2.23
2018-03-26T07:07:16.879Z,2.23
2018-03-26T07:08:17.143Z,2.30
2018-03-26T07:09:16.403Z,2.30
2018-03-26T07:10:16.656Z,2.30
2018-03-26T07:11:16.708Z,2.36
2018-03-26T07:12:16.984Z,2.30
2018-03-26T07:13:16.293Z,2.30
2018-03-26T07:14:16.552Z,2.30
2018-03-26T07:15:16.815Z,2.36
2018-03-26T07:16:17.090Z,2.36
2018-03-26T07:17:16.351Z,2.36
2018-03-26T07:18:16.614Z,2.36
2018-03-26T07:19:16.883Z,2.36
2018-03-26T07:20:17.148Z,2.36
2018-03-26T07:21:17.198Z,2.30
2018-03-26T07:22:16.741Z,2.36
2018-03-26T07:23:17.006Z,2.42
2018-03-26T07:24:16.276Z,2.48
2018-03-26T07:25:16.547Z,2.48
2018-03-26T07:26:16.827Z,2.48
2018-03-26T07:27:17.119Z,2.55
2018-03-26T07:28:16.382Z,2.61
2018-03-26T07:29:16.642Z,2.61
2018-03-26T07:30:16.922Z,2.67
2018-03-26T07:31:16.967Z,2.67
2018-03-26T07:32:16.221Z,2.61
2018-03-26T07:33:16.488Z,2.61
2018-03-26T07:34:16.750Z,2.55
2018-03-26T07:35:17.011Z,2.48
2018-03-26T07:36:16.275Z,2.61
2018-03-26T07:37:16.530Z,2.61
2018-03-26T07:38:16.788Z,2.61
2018-03-26T07:39:17.054Z,2.61
2018-03-26T07:40:16.339Z,2.61
2018-03-26T07:41:16.416Z,2.73
2018-03-26T07:42:16.700Z,2.80
2018-03-26T07:43:16.960Z,2.80
2018-03-26T07:44:16.220Z,2.86
2018-03-26T07:45:16.476Z,2.92
2018-03-26T07:46:16.735Z,2.86
2018-03-26T07:47:17.000Z,2.86
2018-03-26T07:48:16.260Z,3.05
2018-03-26T07:49:16.524Z,3.11
2018-03-26T07:50:16.906Z,3.23
2018-03-26T07:51:16.842Z,3.30
2018-03-26T07:52:17.115Z,3.36
2018-03-26T07:53:16.372Z,3.23
2018-03-26T07:54:16.630Z,3.30
2018-03-26T07:55:16.896Z,3.30
2018-03-26T07:56:17.161Z,3.42
2018-03-26T07:57:16.426Z,3.48
2018-03-26T07:58:16.684Z,3.55
2018-03-26T07:59:16.948Z,3.61
2018-03-26T08:00:16.222Z,3.61
2018-03-26T08:01:16.265Z,3.61
2018-03-26T08:02:16.526Z,3.55
2018-03-26T08:03:16.799Z,3.48
2018-03-26T08:04:17.066Z,3.42
2018-03-26T08:05:16.324Z,3.48
2018-03-26T08:06:16.599Z,3.48
2018-03-26T08:07:16.858Z,3.55
2018-03-26T08:08:17.138Z,3.61
2018-03-26T08:09:16.404Z,3.61
2018-03-26T08:10:16.670Z,3.67
2018-03-26T08:11:16.714Z,3.67
2018-03-26T08:12:16.977Z,3.61
2018-03-26T08:13:16.238Z,3.55
2018-03-26T08:14:16.497Z,3.61
2018-03-26T08:15:16.775Z,3.61
2018-03-26T08:16:17.037Z,3.61
2018-03-26T08:17:16.312Z,3.61
2018-03-26T08:18:16.603Z,3.67
2018-03-26T08:19:16.864Z,3.73
2018-03-26T08:20:17.127Z,3.67
2018-03-26T08:21:17.177Z,3.67
2018-03-26T08:22:16.439Z,3.80
2018-03-26T08:23:16.705Z,3.86
2018-03-26T08:24:16.969Z,3.79
2018-03-26T08:25:16.233Z,3.77
2018-03-26T08:26:16.507Z,3.80
2018-03-26T08:27:16.765Z,3.80
2018-03-26T08:28:17.042Z,3.73
2018-03-26T08:29:16.348Z,3.80
2018-03-26T08:30:16.625Z,3.80
2018-03-26T08:31:16.680Z,3.92
2018-03-26T08:32:16.950Z,3.97
2018-03-26T08:33:16.211Z,3.98
2018-03-26T08:34:16.469Z,4.08
2018-03-26T08:35:16.731Z,4.06
2018-03-26T08:36:16.991Z,4.11
2018-03-26T08:37:16.246Z,4.11
2018-03-26T08:38:16.509Z,4.11
2018-03-26T08:39:16.779Z,4.17
2018-03-26T08:40:17.056Z,4.17
2018-03-26T08:41:17.086Z,4.17
2018-03-26T08:42:16.440Z,4.17
2018-03-26T08:43:16.919Z,4.17
2018-03-26T08:44:17.196Z,4.23
2018-03-26T08:45:16.461Z,4.30
2018-03-26T08:46:16.728Z,4.30
2018-03-26T08:47:16.984Z,4.23
2018-03-26T08:48:16.250Z,4.23
2018-03-26T08:49:16.511Z,4.23
2018-03-26T08:50:16.852Z,4.23
2018-03-26T08:51:16.820Z,4.23
2018-03-26T08:52:17.087Z,4.23
2018-03-26T08:53:16.343Z,4.23
2018-03-26T08:54:16.616Z,4.17
2018-03-26T08:55:16.882Z,4.17
2018-03-26T08:56:17.190Z,4.17
2018-03-26T08:57:16.499Z,4.30
2018-03-26T08:58:16.763Z,4.36
2018-03-26T08:59:17.029Z,4.36
2018-03-26T09:00:16.392Z,4.36
2018-03-26T09:01:16.440Z,4.42
2018-03-26T09:02:16.704Z,4.48
2018-03-26T09:03:16.970Z,4.52
2018-03-26T09:04:16.239Z,4.49
2018-03-26T09:05:16.508Z,4.53
2018-03-26T09:06:16.767Z,4.61
2018-03-26T09:07:17.028Z,4.67
2018-03-26T09:08:16.284Z,4.48
2018-03-26T09:09:16.558Z,4.42
2018-03-26T09:10:16.849Z,4.55
2018-03-26T09:11:16.886Z,4.67
2018-03-26T09:12:17.145Z,4.80
2018-03-26T09:13:16.404Z,4.80
2018-03-26T09:14:16.678Z,4.86
2018-03-26T09:15:16.945Z,4.86
2018-03-26T09:16:16.202Z,4.86
2018-03-26T09:17:16.477Z,4.86
2018-03-26T09:18:16.737Z,4.98
2018-03-26T09:19:17.002Z,4.98
2018-03-26T09:20:16.278Z,5.04
2018-03-26T09:21:16.308Z,5.17
2018-03-26T09:22:16.578Z,5.17
2018-03-26T09:23:16.843Z,5.09
2018-03-26T09:24:17.117Z,5.09
2018-03-26T09:25:16.377Z,5.22
2018-03-26T09:26:16.646Z,5.30
2018-03-26T09:27:16.919Z,5.23
2018-03-26T09:28:17.198Z,5.11
2018-03-26T09:29:16.458Z,4.86
2018-03-26T09:30:16.714Z,4.92
2018-03-26T09:31:16.774Z,5.11
2018-03-26T09:32:17.035Z,5.06
2018-03-26T09:33:16.311Z,5.15
2018-03-26T09:34:16.579Z,5.23
2018-03-26T09:35:16.846Z,5.20
2018-03-26T09:36:17.109Z,5.16
2018-03-26T09:37:16.371Z,5.24
2018-03-26T09:38:16.633Z,5.20
2018-03-26T09:39:16.894Z,5.19
2018-03-26T09:40:17.167Z,5.23
2018-03-26T09:41:16.213Z,5.24
2018-03-26T09:42:16.470Z,5.38
2018-03-26T09:43:16.729Z,5.33
2018-03-26T09:44:16.999Z,5.33
2018-03-26T09:45:16.270Z,5.33
2018-03-26T09:46:16.540Z,5.59
2018-03-26T09:47:16.808Z,5.59
2018-03-26T09:48:17.266Z,5.56
2018-03-26T09:49:16.524Z,5.56
2018-03-26T09:50:16.800Z,5.52
2018-03-26T09:51:16.831Z,5.50
2018-03-26T09:52:17.090Z,5.50
2018-03-26T09:53:16.362Z,5.63
2018-03-26T09:54:16.800Z,5.96
2018-03-26T09:55:17.056Z,5.97
2018-03-26T09:56:16.325Z,5.79
2018-03-26T09:57:16.583Z,5.64
2018-03-26T09:58:16.858Z,5.50
2018-03-26T09:59:17.132Z,5.49
2018-03-26T10:00:16.408Z,5.48
2018-03-26T10:01:16.443Z,5.55
2018-03-26T10:02:16.708Z,5.66
2018-03-26T10:03:16.975Z,5.69
2018-03-26T10:04:16.290Z,5.67
2018-03-26T10:05:16.594Z,5.86
2018-03-26T10:06:16.854Z,6.01
2018-03-26T10:07:17.105Z,6.11
2018-03-26T10:08:16.363Z,6.34
2018-03-26T10:09:16.637Z,6.17
2018-03-26T10:10:16.906Z,6.17
2018-03-26T10:11:16.950Z,6.36
2018-03-26T10:12:16.213Z,6.62
2018-03-26T10:13:16.481Z,6.73
2018-03-26T10:14:16.748Z,6.42
2018-03-26T10:15:17.036Z,6.48
2018-03-26T10:16:16.306Z,6.67
2018-03-26T10:17:16.572Z,6.61
2018-03-26T10:18:16.831Z,6.36
2018-03-26T10:19:17.099Z,6.42
2018-03-26T10:20:16.364Z,6.48
2018-03-26T10:21:16.412Z,6.73
2018-03-26T10:22:16.677Z,6.92
2018-03-26T10:23:16.930Z,6.92
2018-03-26T10:24:17.188Z,6.86
2018-03-26T10:25:16.459Z,6.67
2018-03-26T10:26:16.764Z,6.61
2018-03-26T10:27:17.027Z,6.48
2018-03-26T10:28:16.296Z,6.36
2018-03-26T10:29:16.587Z,6.42
2018-03-26T10:30:16.864Z,6.48
2018-03-26T10:31:16.906Z,6.55
2018-03-26T10:32:17.173Z,6.55
2018-03-26T10:33:16.435Z,6.55
2018-03-26T10:34:16.693Z,6.61
2018-03-26T10:35:16.965Z,6.67
2018-03-26T10:36:16.235Z,6.80
2018-03-26T10:37:16.501Z,6.80
2018-03-26T10:38:16.781Z,6.80
2018-03-26T10:39:17.035Z,6.80
2018-03-26T10:40:16.316Z,6.98
2018-03-26T10:41:16.366Z,6.98
2018-03-26T10:42:16.634Z,7.30
2018-03-26T10:43:16.905Z,7.36
2018-03-26T10:44:17.171Z,7.36
2018-03-26T10:45:16.485Z,7.42
2018-03-26T10:46:16.801Z,7.30
2018-03-26T10:47:17.070Z,7.11
2018-03-26T10:48:16.332Z,7.17
2018-03-26T10:49:16.597Z,7.17
2018-03-26T10:50:16.863Z,7.06
2018-03-26T10:51:16.917Z,7.01
2018-03-26T10:52:17.173Z,6.96
2018-03-26T10:53:16.447Z,7.11
2018-03-26T10:54:16.714Z,6.98
2018-03-26T10:55:16.987Z,6.98
2018-03-26T10:56:16.248Z,6.98
2018-03-26T10:57:16.522Z,6.86
2018-03-26T10:58:16.800Z,6.73
2018-03-26T10:59:17.070Z,6.73
2018-03-26T11:00:16.346Z,6.86
2018-03-26T11:01:16.380Z,6.80
2018-03-26T11:02:16.632Z,6.80
2018-03-26T11:03:16.892Z,6.73
2018-03-26T11:04:17.166Z,6.61
2018-03-26T11:05:16.423Z,6.55
2018-03-26T11:06:16.688Z,6.48
2018-03-26T11:07:16.963Z,6.48
2018-03-26T11:08:16.232Z,6.48
2018-03-26T11:09:16.497Z,6.55
2018-03-26T11:10:16.760Z,6.48
2018-03-26T11:11:16.792Z,6.48
2018-03-26T11:12:17.065Z,6.48
2018-03-26T11:13:16.339Z,6.55
2018-03-26T11:14:16.592Z,6.42
2018-03-26T11:15:16.880Z,6.48
2018-03-26T11:16:17.145Z,6.55
2018-03-26T11:17:16.406Z,6.55
2018-03-26T11:18:16.663Z,6.61
2018-03-26T11:19:16.929Z,6.73
2018-03-26T11:20:17.210Z,6.73
2018-03-26T11:21:16.256Z,6.80
2018-03-26T11:22:16.524Z,6.98
2018-03-26T11:23:16.788Z,6.87
2018-03-26T11:24:17.051Z,6.82
2018-03-26T11:25:16.321Z,6.78
2018-03-26T11:26:16.618Z,6.71
2018-03-26T11:27:16.880Z,6.74
2018-03-26T11:28:17.145Z,6.74
2018-03-26T11:29:16.403Z,6.95
2018-03-26T11:30:16.686Z,6.87
2018-03-26T11:31:16.706Z,6.82
2018-03-26T11:32:16.969Z,6.84
2018-03-26T11:33:16.248Z,6.85
2018-03-26T11:34:16.515Z,7.01
2018-03-26T11:35:16.789Z,7.10
2018-03-26T11:36:17.090Z,7.11
2018-03-26T11:37:16.410Z,7.30
2018-03-26T11:38:16.667Z,7.32
2018-03-26T11:39:16.929Z,7.40
2018-03-26T11:40:17.220Z,7.67
2018-03-26T11:41:16.260Z,7.69
2018-03-26T11:42:16.527Z,7.55
2018-03-26T11:43:16.792Z,7.79
2018-03-26T11:44:17.058Z,7.73
2018-03-26T11:45:16.330Z,7.88
2018-03-26T11:46:16.596Z,7.96
2018-03-26T11:47:16.864Z,7.84
2018-03-26T11:48:17.127Z,7.94
2018-03-26T11:49:16.388Z,8.06
2018-03-26T11:50:16.651Z,8.21
2018-03-26T11:51:16.705Z,8.53
2018-03-26T11:52:16.969Z,8.71
2018-03-26T11:53:16.226Z,8.80
2018-03-26T11:54:16.481Z,8.75
2018-03-26T11:55:16.801Z,8.92
2018-03-26T11:56:17.108Z,8.61
2018-03-26T11:57:16.415Z,8.48
2018-03-26T11:58:16.676Z,8.55
2018-03-26T11:59:16.939Z,8.61
2018-03-26T12:00:16.214Z,8.73
2018-03-26T12:01:16.241Z,8.86
2018-03-26T12:02:16.505Z,8.98
2018-03-26T12:03:16.763Z,9.17
2018-03-26T12:04:17.038Z,9.16
2018-03-26T12:05:16.310Z,9.18
2018-03-26T12:06:16.576Z,9.16
2018-03-26T12:07:16.840Z,9.34
2018-03-26T12:08:17.102Z,9.17
2018-03-26T12:09:16.367Z,9.59
2018-03-26T12:10:16.663Z,9.36
2018-03-26T12:11:16.695Z,9.42
2018-03-26T12:12:16.967Z,9.42
2018-03-26T12:13:16.236Z,9.17
2018-03-26T12:14:16.497Z,9.05
2018-03-26T12:15:16.764Z,9.30
2018-03-26T12:16:17.029Z,9.61
2018-03-26T12:17:16.302Z,9.86
2018-03-26T12:18:16.576Z,10.05
2018-03-26T12:19:16.845Z,10.22
2018-03-26T12:20:17.124Z,9.80
2018-03-26T12:21:17.171Z,9.80
2018-03-26T12:22:16.454Z,9.98
2018-03-26T12:23:16.719Z,9.73
2018-03-26T12:24:16.980Z,9.48
2018-03-26T12:25:16.242Z,9.36
2018-03-26T12:26:16.513Z,9.36
2018-03-26T12:27:16.826Z,9.48
2018-03-26T12:28:17.178Z,9.48
2018-03-26T12:29:16.540Z,9.61
2018-03-26T12:30:16.817Z,9.48
2018-03-26T12:31:16.848Z,9.61
2018-03-26T12:32:17.122Z,9.61
2018-03-26T12:33:16.380Z,9.73
2018-03-26T12:34:16.647Z,9.61
2018-03-26T12:35:16.905Z,9.36
2018-03-26T12:36:17.170Z,9.36
2018-03-26T12:37:16.430Z,9.36
2018-03-26T12:38:16.694Z,9.42
2018-03-26T12:39:16.971Z,9.67
2018-03-26T12:40:16.242Z,9.55
2018-03-26T12:41:16.284Z,9.56
2018-03-26T12:42:16.546Z,9.67
2018-03-26T12:43:16.811Z,9.69
2018-03-26T12:44:17.076Z,9.90
2018-03-26T12:45:16.339Z,9.78
2018-03-26T12:46:16.604Z,9.67
2018-03-26T12:47:16.874Z,9.75
2018-03-26T12:48:17.148Z,9.70
2018-03-26T12:49:16.414Z,9.96
2018-03-26T12:50:16.678Z,9.78
2018-03-26T12:51:16.726Z,9.62
2018-03-26T12:52:16.984Z,9.50
2018-03-26T12:53:16.245Z,9.39
2018-03-26T12:54:16.512Z,9.34
2018-03-26T12:55:16.770Z,9.31
2018-03-26T12:56:17.041Z,9.48
2018-03-26T12:57:16.306Z,9.49
2018-03-26T12:58:16.564Z,9.63
2018-03-26T12:59:16.840Z,9.64
2018-03-26T13:00:17.101Z,9.66
2018-03-26T13:01:17.154Z,10.08
2018-03-26T13:02:16.406Z,9.78
2018-03-26T13:03:16.666Z,9.63
2018-03-26T13:04:16.934Z,9.88
2018-03-26T13:05:17.195Z,9.67
2018-03-26T13:06:16.456Z,9.85
2018-03-26T13:07:16.721Z,9.62
2018-03-26T13:08:16.989Z,9.56
2018-03-26T13:09:16.256Z,9.53
2018-03-26T13:10:16.535Z,9.67